createdAt,value
2022-09-26T00:01:21.876Z,86.32
2022-09-26T00:03:52.209Z,86.38
2022-09-26T00:06:20.055Z,86.43
2022-09-26T00:08:47.751Z,86.61
2022-09-26T00:11:16.914Z,87.03
2022-09-26T00:13:44.161Z,87.04
2022-09-26T00:16:12.413Z,87.78
2022-09-26T00:18:39.996Z,88.13
2022-09-26T00:21:14.083Z,88.65
2022-09-26T00:23:44.278Z,89.27
2022-09-26T00:26:12.335Z,89.27
2022-09-26T00:28:39.957Z,89.54
2022-09-26T00:31:10.550Z,89.81
2022-09-26T00:33:37.666Z,89.81
2022-09-26T00:36:05.017Z,90.14
2022-09-26T00:38:31.810Z,90.55
2022-09-26T00:40:58.762Z,89.98
2022-09-26T00:43:38.337Z,89.83
2022-09-26T00:46:16.784Z,90.17
2022-09-26T00:48:47.862Z,89.87
2022-09-26T00:51:15.018Z,89.76
2022-09-26T00:53:46.923Z,90.32
2022-09-26T00:56:30.195Z,90.38
2022-09-26T00:59:16.850Z,90.26
2022-09-26T01:01:43.401Z,90.02
2022-09-26T01:04:11.578Z,90.34
2022-09-26T01:06:38.185Z,90.08
2022-09-26T01:09:09.997Z,90.22
2022-09-26T01:11:38.054Z,90.68
2022-09-26T01:14:07.950Z,90.40
2022-09-26T01:16:35.423Z,90.28
2022-09-26T01:19:06.902Z,90.12
2022-09-26T01:21:58.273Z,90.08
2022-09-26T01:24:55.624Z,89.35
2022-09-26T01:27:52.786Z,89.34
2022-09-26T01:30:30.889Z,89.32
2022-09-26T01:33:26.060Z,89.14
2022-09-26T01:36:12.611Z,88.95
2022-09-26T01:39:13.101Z,88.71
2022-09-26T01:42:17.717Z,88.79
2022-09-26T01:44:54.613Z,88.40
2022-09-26T01:47:33.868Z,88.58
2022-09-26T01:50:21.450Z,88.40
2022-09-26T01:53:06.205Z,88.31
2022-09-26T01:55:43.312Z,87.75
2022-09-26T01:58:25.187Z,87.74
2022-09-26T02:00:54.205Z,87.73
2022-09-26T02:03:27.888Z,87.81
2022-09-26T02:06:09.197Z,87.87
2022-09-26T02:08:42.268Z,87.53
2022-09-26T02:11:17.217Z,87.19
2022-09-26T02:14:06.138Z,87.26
2022-09-26T02:16:48.319Z,86.60
2022-09-26T02:19:16.800Z,86.27
2022-09-26T02:21:44.143Z,86.16
2022-09-26T02:24:10.624Z,85.88
2022-09-26T02:26:37.329Z,85.61
2022-09-26T02:29:05.296Z,85.64
2022-09-26T02:31:36.496Z,86.18
2022-09-26T02:34:04.351Z,86.63
2022-09-26T02:36:34.398Z,86.41
2022-09-26T02:39:01.582Z,86.95
2022-09-26T02:41:40.434Z,86.85
2022-09-26T02:44:21.811Z,87.17
2022-09-26T02:46:54.130Z,87.88
2022-09-26T02:49:37.265Z,87.82
2022-09-26T02:52:23.937Z,88.00
2022-09-26T02:55:08.523Z,88.09
2022-09-26T02:57:44.813Z,87.89
2022-09-26T03:00:20.077Z,88.10
2022-09-26T03:03:13.487Z,88.39
2022-09-26T03:05:44.344Z,88.86
2022-09-26T03:08:43.371Z,88.68
2022-09-26T03:11:12.773Z,89.05
2022-09-26T03:13:40.903Z,88.57
2022-09-26T03:16:09.616Z,88.79
2022-09-26T03:18:41.889Z,88.76
2022-09-26T03:21:08.452Z,88.60
2022-09-26T03:23:34.986Z,88.38
2022-09-26T03:26:08.176Z,88.47
2022-09-26T03:28:37.851Z,88.09
2022-09-26T03:31:04.802Z,88.28
2022-09-26T03:33:31.243Z,88.23
2022-09-26T03:35:59.767Z,87.73
2022-09-26T03:38:26.991Z,87.59
2022-09-26T03:40:53.920Z,87.26
2022-09-26T03:43:20.869Z,87.67
2022-09-26T03:45:47.336Z,87.32
2022-09-26T03:48:13.806Z,86.23
2022-09-26T03:50:40.745Z,86.28
2022-09-26T03:53:07.365Z,86.49
2022-09-26T03:55:33.949Z,86.04
2022-09-26T03:58:01.338Z,85.72
2022-09-26T04:00:27.914Z,85.60
2022-09-26T04:02:54.649Z,85.06
2022-09-26T04:05:21.379Z,84.83
2022-09-26T04:07:48.653Z,84.83
2022-09-26T04:10:15.089Z,85.24
2022-09-26T04:12:41.533Z,84.34
2022-09-26T04:15:08.443Z,84.71
2022-09-26T04:17:34.958Z,84.35
2022-09-26T04:20:01.975Z,83.65
2022-09-26T04:22:28.403Z,83.72
2022-09-26T04:24:54.882Z,83.54
2022-09-26T04:27:21.335Z,83.91
2022-09-26T04:29:47.865Z,83.96
2022-09-26T04:32:14.270Z,82.82
2022-09-26T04:34:40.699Z,82.90
2022-09-26T04:37:07.173Z,82.38
2022-09-26T04:39:35.907Z,82.63
2022-09-26T04:42:02.337Z,82.51
2022-09-26T04:44:30.347Z,82.02
2022-09-26T04:46:56.839Z,82.05
2022-09-26T04:49:23.994Z,81.45
2022-09-26T04:51:51.997Z,81.87
2022-09-26T04:54:18.493Z,81.45
2022-09-26T04:56:44.954Z,81.06
2022-09-26T04:59:11.517Z,81.55
2022-09-26T05:01:38.158Z,81.50
2022-09-26T05:04:04.785Z,81.73
2022-09-26T05:06:31.252Z,81.69
2022-09-26T05:08:58.220Z,82.28
2022-09-26T05:11:25.062Z,81.92
2022-09-26T05:13:53.837Z,81.89
2022-09-26T05:16:21.062Z,82.25
2022-09-26T05:18:51.823Z,82.19
2022-09-26T05:21:18.326Z,82.50
2022-09-26T05:24:03.260Z,82.38
2022-09-26T05:26:36.530Z,82.58
2022-09-26T05:29:08.374Z,82.89
2022-09-26T05:31:39.800Z,83.45
2022-09-26T05:34:13.091Z,83.87
2022-09-26T05:36:43.030Z,84.10
2022-09-26T05:39:29.867Z,84.15
2022-09-26T05:41:58.319Z,84.32
2022-09-26T05:44:24.882Z,83.92
2022-09-26T05:46:51.962Z,84.01
2022-09-26T05:49:18.500Z,84.71
2022-09-26T05:51:45.210Z,84.53
2022-09-26T05:54:11.698Z,84.74
2022-09-26T05:56:38.124Z,85.16
2022-09-26T05:59:05.215Z,84.91
2022-09-26T06:01:33.418Z,84.67
2022-09-26T06:04:00.148Z,85.19
2022-09-26T06:06:26.616Z,85.37
2022-09-26T06:08:53.066Z,85.54
2022-09-26T06:11:24.946Z,85.69
2022-09-26T06:13:51.874Z,86.00
2022-09-26T06:16:20.748Z,86.16
2022-09-26T06:18:49.077Z,86.78
2022-09-26T06:21:17.125Z,86.60
2022-09-26T06:23:44.095Z,86.79
2022-09-26T06:26:15.751Z,86.60
2022-09-26T06:28:42.252Z,86.91
2022-09-26T06:31:14.144Z,86.32
2022-09-26T06:33:41.314Z,86.65
2022-09-26T06:36:10.569Z,86.57
2022-09-26T06:38:38.245Z,86.64
2022-09-26T06:41:05.229Z,86.58
2022-09-26T06:43:31.715Z,86.82
2022-09-26T06:45:58.129Z,86.37
2022-09-26T06:48:27.278Z,86.66
2022-09-26T06:50:55.644Z,86.05
2022-09-26T06:53:22.610Z,86.33
2022-09-26T06:55:49.154Z,86.53
2022-09-26T06:58:15.675Z,85.76
2022-09-26T07:00:42.198Z,85.80
2022-09-26T07:03:08.762Z,85.65
2022-09-26T07:05:35.803Z,85.54
2022-09-26T07:08:02.617Z,84.68
2022-09-26T07:10:30.459Z,85.20
2022-09-26T07:13:03.145Z,85.00
2022-09-26T07:15:33.515Z,85.31
2022-09-26T07:18:02.681Z,84.88
2022-09-26T07:20:34.560Z,84.85
2022-09-26T07:23:04.743Z,85.05
2022-09-26T07:25:31.968Z,84.72
2022-09-26T07:27:59.539Z,84.88
2022-09-26T07:30:28.190Z,84.58
2022-09-26T07:33:05.333Z,84.77
2022-09-26T07:35:33.875Z,84.80
2022-09-26T07:38:00.311Z,85.11
2022-09-26T07:40:27.535Z,84.77
2022-09-26T07:43:18.130Z,84.48
2022-09-26T07:46:03.166Z,85.07
2022-09-26T07:48:47.966Z,84.52
2022-09-26T07:51:14.481Z,84.79
2022-09-26T07:53:41.158Z,84.46
2022-09-26T07:56:11.291Z,84.55
2022-09-26T07:58:40.406Z,84.16
2022-09-26T08:01:11.411Z,84.10
2022-09-26T08:03:42.197Z,84.63
2022-09-26T08:06:09.812Z,84.92
2022-09-26T08:08:37.216Z,84.64
2022-09-26T08:11:04.613Z,84.68
2022-09-26T08:13:32.039Z,84.43
2022-09-26T08:16:05.994Z,84.77
2022-09-26T08:18:33.828Z,84.40
2022-09-26T08:21:05.474Z,83.79
2022-09-26T08:23:32.953Z,83.59
2022-09-26T08:26:03.335Z,83.88
2022-09-26T08:28:29.765Z,84.00
2022-09-26T08:31:05.041Z,84.06
2022-09-26T08:33:35.988Z,84.17
2022-09-26T08:36:07.638Z,84.19
2022-09-26T08:38:35.561Z,84.15
2022-09-26T08:41:40.136Z,84.58
2022-09-26T08:44:36.721Z,86.03
2022-09-26T08:47:08.055Z,87.10
2022-09-26T08:49:44.239Z,87.30
2022-09-26T08:52:33.199Z,87.54
2022-09-26T08:55:06.336Z,87.49
2022-09-26T08:57:38.837Z,87.33
2022-09-26T09:00:26.516Z,87.63
2022-09-26T09:03:24.288Z,87.56
2022-09-26T09:06:12.618Z,87.29
2022-09-26T09:08:42.932Z,87.39
2022-09-26T09:11:34.286Z,87.76
2022-09-26T09:14:20.379Z,88.14
2022-09-26T09:17:03.018Z,88.89
2022-09-26T09:19:58.605Z,88.88
2022-09-26T09:22:54.164Z,89.29
2022-09-26T09:25:20.517Z,89.49
2022-09-26T09:28:13.764Z,90.10
2022-09-26T09:30:42.606Z,90.04
2022-09-26T09:33:14.460Z,89.88
2022-09-26T09:35:52.484Z,90.21
2022-09-26T09:38:31.767Z,90.13
2022-09-26T09:41:04.221Z,90.13
2022-09-26T09:43:51.754Z,89.88
2022-09-26T09:46:28.884Z,90.13
2022-09-26T09:49:14.127Z,90.23
2022-09-26T09:51:40.478Z,89.81
2022-09-26T09:54:34.427Z,90.99
2022-09-26T09:57:33.061Z,90.75
2022-09-26T10:00:24.687Z,91.09
2022-09-26T10:03:11.559Z,91.09
2022-09-26T10:05:42.624Z,91.57
2022-09-26T10:08:13.306Z,91.89
2022-09-26T10:10:48.587Z,91.69
2022-09-26T10:13:17.855Z,91.90
2022-09-26T10:15:59.823Z,92.01
2022-09-26T10:18:27.328Z,92.42
2022-09-26T10:20:55.341Z,92.70
2022-09-26T10:23:31.392Z,93.21
2022-09-26T10:26:03.883Z,93.83
2022-09-26T10:28:48.026Z,94.33
2022-09-26T10:31:29.845Z,94.70
2022-09-26T10:34:00.177Z,94.91
2022-09-26T10:36:32.553Z,95.28
2022-09-26T10:39:22.146Z,95.37
2022-09-26T10:41:49.187Z,95.48
2022-09-26T10:44:38.961Z,95.51
2022-09-26T10:47:08.664Z,95.89
2022-09-26T10:49:47.647Z,96.01
2022-09-26T10:52:30.672Z,95.97
2022-09-26T10:55:06.352Z,96.17
2022-09-26T10:57:54.366Z,96.28
2022-09-26T11:00:37.227Z,96.32
2022-09-26T11:03:06.354Z,96.46
2022-09-26T11:05:56.791Z,96.89
2022-09-26T11:08:32.286Z,96.78
2022-09-26T11:11:02.167Z,97.03
2022-09-26T11:13:32.388Z,97.17
2022-09-26T11:16:08.786Z,97.16
2022-09-26T11:18:51.826Z,97.71
2022-09-26T11:21:38.493Z,97.21
2022-09-26T11:24:15.257Z,97.41
2022-09-26T11:26:57.001Z,97.55
2022-09-26T11:29:24.792Z,97.38
2022-09-26T11:31:51.248Z,97.35
2022-09-26T11:34:26.268Z,97.32
2022-09-26T11:37:17.377Z,97.57
2022-09-26T11:40:09.222Z,97.89
2022-09-26T11:43:08.662Z,97.85
2022-09-26T11:45:48.103Z,97.98
2022-09-26T11:48:37.178Z,98.22
2022-09-26T11:51:43.797Z,98.35
2022-09-26T11:54:25.210Z,98.33
2022-09-26T11:57:11.448Z,98.25
2022-09-26T12:00:08.159Z,98.25
2022-09-26T12:02:47.343Z,98.07
2022-09-26T12:05:31.914Z,98.11
2022-09-26T12:08:29.391Z,98.02
2022-09-26T12:11:07.922Z,97.86
2022-09-26T12:13:54.966Z,97.69
2022-09-26T12:16:35.863Z,98.10
2022-09-26T12:19:42.139Z,98.01
2022-09-26T12:22:28.215Z,97.70
2022-09-26T12:25:10.947Z,97.64
2022-09-26T12:27:55.511Z,97.92
2022-09-26T12:30:42.243Z,97.95
2022-09-26T12:33:14.789Z,98.10
2022-09-26T12:36:40.258Z,97.98
2022-09-26T12:39:09.455Z,97.75
2022-09-26T12:42:07.714Z,97.75
2022-09-26T12:44:47.370Z,98.78
2022-09-26T12:47:26.942Z,98.55
2022-09-26T12:49:53.329Z,98.77
2022-09-26T12:52:42.985Z,98.86
2022-09-26T12:55:25.695Z,98.77
2022-09-26T12:58:25.617Z,98.68
2022-09-26T13:01:19.776Z,98.62
2022-09-26T13:04:15.753Z,98.85
2022-09-26T13:07:07.956Z,98.87
2022-09-26T13:10:01.093Z,98.91
2022-09-26T13:13:08.295Z,98.93
2022-09-26T13:15:43.911Z,98.80
2022-09-26T13:18:35.304Z,99.14
2022-09-26T13:21:08.977Z,99.24
2022-09-26T13:23:43.561Z,99.63
2022-09-26T13:26:17.579Z,99.72
2022-09-26T13:29:23.254Z,99.67
2022-09-26T13:31:55.364Z,100.00
2022-09-26T13:34:38.921Z,100.00
2022-09-26T13:37:14.614Z,100.00
2022-09-26T13:39:49.685Z,100.00
2022-09-26T13:42:36.753Z,100.00
2022-09-26T13:45:19.402Z,100.00
2022-09-26T13:47:55.433Z,100.00
2022-09-26T13:51:06.393Z,100.00
2022-09-26T13:53:44.019Z,100.00
2022-09-26T13:56:48.434Z,100.00
2022-09-26T13:59:15.539Z,100.00
2022-09-26T14:02:17.650Z,100.00
2022-09-26T14:05:10.768Z,100.00
2022-09-26T14:07:58.948Z,100.00
2022-09-26T14:10:25.293Z,100.00
2022-09-26T14:13:03.267Z,100.00
2022-09-26T14:15:57.313Z,100.00
2022-09-26T14:18:45.552Z,100.00
2022-09-26T14:21:23.672Z,100.00
2022-09-26T14:24:10.906Z,100.00
2022-09-26T14:26:44.227Z,100.00
2022-09-26T14:29:51.473Z,100.00
2022-09-26T14:32:34.679Z,100.00
2022-09-26T14:35:04.721Z,100.00
2022-09-26T14:37:38.759Z,100.00
2022-09-26T14:40:19.470Z,100.00
2022-09-26T14:42:45.845Z,100.00
2022-09-26T14:45:24.854Z,100.00
2022-09-26T14:48:02.472Z,100.00
2022-09-26T14:50:35.221Z,100.00
2022-09-26T14:53:29.992Z,100.00
2022-09-26T14:56:03.499Z,100.00
2022-09-26T14:58:48.366Z,100.00
2022-09-26T15:01:31.534Z,100.00
2022-09-26T15:04:03.138Z,100.00
2022-09-26T15:06:35.612Z,100.00
2022-09-26T15:09:12.430Z,100.00
2022-09-26T15:11:54.532Z,100.00
2022-09-26T15:14:39.848Z,100.00
2022-09-26T15:17:08.969Z,100.00
2022-09-26T15:19:41.865Z,100.00
2022-09-26T15:22:14.606Z,100.00
2022-09-26T15:24:41.419Z,100.00
2022-09-26T15:27:12.190Z,100.00
2022-09-26T15:29:49.658Z,100.00
2022-09-26T15:32:25.879Z,100.00
2022-09-26T15:34:53.361Z,100.00
2022-09-26T15:37:26.890Z,100.00
2022-09-26T15:39:53.307Z,100.00
2022-09-26T15:42:48.706Z,100.00
2022-09-26T15:45:41.876Z,100.00
2022-09-26T15:48:20.264Z,100.00
2022-09-26T15:50:53.234Z,100.00
2022-09-26T15:53:28.832Z,100.00
2022-09-26T15:55:57.673Z,100.00
2022-09-26T15:58:46.359Z,100.00
2022-09-26T16:01:25.627Z,100.00
2022-09-26T16:03:55.719Z,100.00
2022-09-26T16:06:37.008Z,100.00
2022-09-26T16:09:09.317Z,100.00
2022-09-26T16:11:50.119Z,100.00
2022-09-26T16:14:30.825Z,100.00
2022-09-26T16:17:03.696Z,100.00
2022-09-26T16:19:34.905Z,100.00
2022-09-26T16:22:21.737Z,100.00
2022-09-26T16:24:50.519Z,100.00
2022-09-26T16:27:33.488Z,100.00
2022-09-26T16:30:04.730Z,100.00
2022-09-26T16:32:32.062Z,100.00
2022-09-26T16:35:15.424Z,100.00
2022-09-26T16:37:59.556Z,100.00
2022-09-26T16:40:31.434Z,100.00
2022-09-26T16:43:06.902Z,100.00
2022-09-26T16:45:33.582Z,100.00
2022-09-26T16:48:00.033Z,100.00
2022-09-26T16:50:34.074Z,100.00
2022-09-26T16:53:02.834Z,100.00
2022-09-26T16:55:34.154Z,100.00
2022-09-26T16:58:04.282Z,100.00
2022-09-26T17:00:52.747Z,100.00
2022-09-26T17:03:29.080Z,100.00
2022-09-26T17:05:57.045Z,100.00
2022-09-26T17:08:26.365Z,100.00
2022-09-26T17:10:54.111Z,100.00
2022-09-26T17:13:23.319Z,100.00
2022-09-26T17:15:55.701Z,100.00
2022-09-26T17:18:29.046Z,100.00
2022-09-26T17:20:57.007Z,100.00
2022-09-26T17:23:39.411Z,100.00
2022-09-26T17:26:07.699Z,100.00
2022-09-26T17:28:39.920Z,100.00
2022-09-26T17:31:08.449Z,100.00
2022-09-26T17:33:40.378Z,100.00
2022-09-26T17:36:10.781Z,100.00
2022-09-26T17:38:41.124Z,100.00
2022-09-26T17:41:12.498Z,100.00
2022-09-26T17:43:39.021Z,100.00
2022-09-26T17:46:06.306Z,100.00
2022-09-26T17:48:33.169Z,100.00
2022-09-26T17:51:04.179Z,100.00
2022-09-26T17:53:37.677Z,100.00
2022-09-26T17:56:08.177Z,100.00
2022-09-26T17:58:36.959Z,100.00
2022-09-26T18:01:04.663Z,100.00
2022-09-26T18:03:36.222Z,100.00
2022-09-26T18:06:03.564Z,100.00
2022-09-26T18:08:32.362Z,100.00
2022-09-26T18:11:11.625Z,100.00
2022-09-26T18:13:44.465Z,100.00
2022-09-26T18:16:11.456Z,100.00
2022-09-26T18:18:37.943Z,100.00
2022-09-26T18:21:09.797Z,100.00
2022-09-26T18:23:43.055Z,100.00
2022-09-26T18:26:34.222Z,100.00
2022-09-26T18:29:07.514Z,100.00
2022-09-26T18:31:38.339Z,100.00
2022-09-26T18:34:11.335Z,100.00
2022-09-26T18:36:37.738Z,100.00
2022-09-26T18:39:04.305Z,100.00
2022-09-26T18:41:30.727Z,100.00
2022-09-26T18:44:00.475Z,100.00
2022-09-26T18:46:29.154Z,100.00
2022-09-26T18:48:58.345Z,100.00
2022-09-26T18:51:26.252Z,100.00
2022-09-26T18:53:52.766Z,100.00
2022-09-26T18:56:37.894Z,100.00
2022-09-26T18:59:04.566Z,100.00
2022-09-26T19:01:34.305Z,100.00
2022-09-26T19:04:04.105Z,100.00
2022-09-26T19:06:41.757Z,100.00
2022-09-26T19:09:14.714Z,100.00
2022-09-26T19:11:41.562Z,100.00
2022-09-26T19:14:26.022Z,100.00
2022-09-26T19:16:53.008Z,100.00
2022-09-26T19:19:19.821Z,100.00
2022-09-26T19:21:49.020Z,100.00
2022-09-26T19:24:35.819Z,100.00
2022-09-26T19:27:27.262Z,100.00
2022-09-26T19:30:04.674Z,100.00
2022-09-26T19:32:35.062Z,100.00
2022-09-26T19:35:19.997Z,100.00
2022-09-26T19:37:46.870Z,100.00
2022-09-26T19:40:14.637Z,100.00
2022-09-26T19:42:42.319Z,100.00
2022-09-26T19:45:10.646Z,100.00
2022-09-26T19:47:39.444Z,100.00
2022-09-26T19:50:06.781Z,100.00
2022-09-26T19:52:33.174Z,100.00
2022-09-26T19:55:00.532Z,100.00
2022-09-26T19:57:26.961Z,100.00
2022-09-26T19:59:53.739Z,100.00
2022-09-26T20:02:24.912Z,100.00
2022-09-26T20:04:51.862Z,100.00
2022-09-26T20:07:19.734Z,100.00
2022-09-26T20:09:46.870Z,100.00
2022-09-26T20:12:13.896Z,100.00
2022-09-26T20:14:40.558Z,100.00
2022-09-26T20:17:21.100Z,100.00
2022-09-26T20:19:48.631Z,100.00
2022-09-26T20:22:18.884Z,100.00
2022-09-26T20:24:48.136Z,100.00
2022-09-26T20:27:20.671Z,100.00
2022-09-26T20:30:06.902Z,100.00
2022-09-26T20:32:33.786Z,100.00
2022-09-26T20:35:00.752Z,100.00
2022-09-26T20:37:35.187Z,100.00
2022-09-26T20:40:05.535Z,100.00
2022-09-26T20:42:38.851Z,100.00
2022-09-26T20:45:05.955Z,100.00
2022-09-26T20:47:32.683Z,100.00
2022-09-26T20:50:01.263Z,100.00
2022-09-26T20:52:29.646Z,100.00
2022-09-26T20:54:57.209Z,100.00
2022-09-26T20:57:24.476Z,100.00
2022-09-26T20:59:51.386Z,100.00
2022-09-26T21:02:37.697Z,100.00
2022-09-26T21:05:14.127Z,100.00
2022-09-26T21:07:40.666Z,100.00
2022-09-26T21:10:30.484Z,100.00
2022-09-26T21:12:58.002Z,100.00
2022-09-26T21:15:27.539Z,100.00
2022-09-26T21:17:55.268Z,100.00
2022-09-26T21:20:39.867Z,100.00
2022-09-26T21:23:10.198Z,100.00
2022-09-26T21:25:36.625Z,100.00
2022-09-26T21:28:11.196Z,100.00
2022-09-26T21:30:38.082Z,100.00
2022-09-26T21:33:04.554Z,100.00
2022-09-26T21:35:32.047Z,100.00
2022-09-26T21:38:00.758Z,100.00
2022-09-26T21:40:31.003Z,100.00
2022-09-26T21:43:07.799Z,100.00
2022-09-26T21:45:34.231Z,100.00
2022-09-26T21:48:00.827Z,100.00
2022-09-26T21:50:28.882Z,100.00
2022-09-26T21:53:00.542Z,100.00
2022-09-26T21:55:33.568Z,100.00
2022-09-26T21:58:05.326Z,100.00
2022-09-26T22:00:31.867Z,100.00
2022-09-26T22:03:00.090Z,100.00
2022-09-26T22:05:26.775Z,100.00
2022-09-26T22:07:53.198Z,100.00
2022-09-26T22:10:19.940Z,100.00
2022-09-26T22:12:46.642Z,100.00
2022-09-26T22:15:13.079Z,100.00
2022-09-26T22:17:39.560Z,100.00
2022-09-26T22:20:06.177Z,100.00
2022-09-26T22:22:32.676Z,100.00
2022-09-26T22:25:04.141Z,100.00
2022-09-26T22:27:31.678Z,100.00
2022-09-26T22:29:58.145Z,100.00
2022-09-26T22:32:24.653Z,100.00
2022-09-26T22:34:51.082Z,100.00
2022-09-26T22:37:17.763Z,100.00
2022-09-26T22:39:44.178Z,100.00
2022-09-26T22:42:11.902Z,100.00
2022-09-26T22:44:38.360Z,100.00
2022-09-26T22:47:04.894Z,100.00
2022-09-26T22:49:31.965Z,100.00
2022-09-26T22:51:58.478Z,100.00
2022-09-26T22:54:24.941Z,100.00
2022-09-26T22:56:51.386Z,100.00
2022-09-26T22:59:18.053Z,100.00
2022-09-26T23:01:44.601Z,100.00
2022-09-26T23:04:11.215Z,100.00
2022-09-26T23:06:37.656Z,100.00
2022-09-26T23:09:04.168Z,100.00
2022-09-26T23:11:31.590Z,100.00
2022-09-26T23:13:58.045Z,100.00
2022-09-26T23:16:28.066Z,100.00
2022-09-26T23:18:54.622Z,100.00
2022-09-26T23:21:23.777Z,100.00
2022-09-26T23:23:55.392Z,100.00
2022-09-26T23:26:24.263Z,100.00
2022-09-26T23:28:52.239Z,100.00
2022-09-26T23:31:19.512Z,100.00
2022-09-26T23:33:46.497Z,100.00
2022-09-26T23:36:13.405Z,100.00
2022-09-26T23:38:40.960Z,100.00
2022-09-26T23:41:09.602Z,100.00
2022-09-26T23:43:36.158Z,100.00
2022-09-26T23:46:02.971Z,100.00
2022-09-26T23:48:29.478Z,100.00
2022-09-26T23:50:56.507Z,100.00
2022-09-26T23:53:22.987Z,100.00
2022-09-26T23:55:49.595Z,100.00
2022-09-26T23:58:16.296Z,100.00
